This is the latest recevied weather packets stored in our database for station/object HG2HNB-13. If no packets are shown the sender has not sent any weather packets the latest 10 day(s).
| Time | Temp. | Humidity | Pressure | Rain* | Wind** | Luminosity | Snow |
|---|---|---|---|---|---|---|---|
| 1778066521 | 22.78° C | 34% | 1010.4 hPa | 0 mm | - | - | - |
| 1778064725 | 22.22° C | 39% | 1010.7 hPa | 0 mm | - | - | - |
| 1778062305 | 21.11° C | 41% | 1011 hPa | 0 mm | - | - | - |
| 1778058705 | 20° C | 42% | 1011.1 hPa | 0 mm | - | - | - |
| 1778058121 | 19.44° C | 44% | 1011.1 hPa | 0 mm | - | - | - |
| 1778055393 | 17.78° C | 47% | 1011.1 hPa | 0 mm | - | - | - |
| 1778054213 | 17.78° C | 47% | 1010.7 hPa | 0 mm | - | - | - |
| 1778053569 | 17.22° C | 51% | 1011.1 hPa | 0 mm | - | - | - |
| 1778051833 | 16.67° C | 51% | 1011.1 hPa | 0 mm | - | - | - |
| 1778048193 | 15° C | 53% | 1011 hPa | 0 mm | - | - | - |
| 1778047569 | 15° C | 54% | 1010.9 hPa | 0 mm | - | - | - |
| 1778044009 | 13.89° C | 56% | 1010.6 hPa | 0 mm | - | - | - |
| 1778042193 | 13.33° C | 57% | 1010.6 hPa | 0 mm | - | - | - |
| 1778040993 | 13.33° C | 57% | 1010.5 hPa | 0 mm | - | - | - |
| 1778040365 | 13.33° C | 57% | 1010.3 hPa | 0 mm | - | - | - |
| 1778039789 | 13.33° C | 57% | 1010.3 hPa | 0 mm | - | - | - |
| 1778035565 | 13.89° C | 55% | 1009.7 hPa | 0 mm | - | - | - |
| 1778030805 | 14.44° C | 54% | 1010.1 hPa | 0 mm | - | - | - |
| 1778028405 | 15° C | 53% | 1010 hPa | 0 mm | - | - | - |
| 1778027809 | 15° C | 52% | 1009.8 hPa | 0 mm | - | - | - |
| 1778027205 | 15° C | 52% | 1009.5 hPa | 0 mm | - | - | - |
| 1778023565 | 15.56° C | 51% | 1010.1 hPa | 0 mm | - | - | - |
| 1778022405 | 15.56° C | 51% | 1010.1 hPa | 0 mm | - | - | - |
| 1778021185 | 15.56° C | 51% | 1010.4 hPa | 0 mm | - | - | - |
| 1778019389 | 16.11° C | 51% | 1010.5 hPa | 0 mm | - | - | - |
* Rain latest hour (hover to see other rain measurements)
** Current wind speed in m/s (hover to see current wind gust speed)